Time;durP1;ratioP1;P1;durP2;ratioP2;P2;SDS_P1;SDS_P2;PMS_P1;PMS_P2;Temp;Humidity;BMP_temperature;BMP_pressure;BME280_temperature;BME280_humidity;BME280_pressure;Samples;Min_cycle;Max_cycle;Signal;HPM_P1;HPM_P2
2022/12/22 03:25:53;;;;;;;26.60;15.88;;;;;;;9.31;56.38;100369.97;7391350;19;19995;-58
2022/12/22 03:28:25;;;;;;;26.95;15.40;;;;;;;9.32;56.52;100360.66;7391732;19;19998;-59
2022/12/22 03:31:04;;;;;;;25.42;16.25;;;;;;;9.24;56.80;100365.09;7392340;19;19999;-58
2022/12/22 03:33:30;;;;;;;29.45;15.68;;;;;;;9.33;56.74;100361.47;7391192;19;20006;-55
2022/12/22 03:35:57;;;;;;;28.67;16.13;;;;;;;9.36;56.59;100352.59;7391088;19;19995;-56
2022/12/22 03:38:23;;;;;;;26.00;17.00;;;;;;;9.18;56.95;100344.69;7391869;19;19998;-56
2022/12/22 03:40:49;;;;;;;26.92;16.10;;;;;;;9.20;57.22;100345.16;7391593;19;20010;-57
2022/12/22 03:49:08;;;;;;;25.67;16.08;;;;;;;9.29;56.55;100355.91;7390450;19;19999;-58
2022/12/22 03:51:37;;;;;;;28.70;17.30;;;;;;;9.30;56.90;100348.53;7391649;19;20002;-58
2022/12/22 03:54:03;;;;;;;27.88;16.30;;;;;;;9.39;56.65;100343.75;7391157;19;20001;-58
2022/12/22 03:56:29;;;;;;;29.52;16.83;;;;;;;9.35;56.63;100331.94;7390376;19;20003;-58
2022/12/22 03:58:55;;;;;;;28.67;17.92;;;;;;;9.25;56.76;100323.13;7390024;19;20002;-58
2022/12/22 04:01:21;;;;;;;29.20;16.50;;;;;;;9.35;56.62;100326.50;7390998;19;19999;-58
2022/12/22 04:03:48;;;;;;;28.48;17.80;;;;;;;9.36;56.67;100312.53;7390977;19;20002;-56
2022/12/22 04:06:15;;;;;;;27.67;17.55;;;;;;;9.26;57.02;100323.91;7384870;19;20013;-57
2022/12/22 04:08:41;;;;;;;26.00;17.10;;;;;;;9.29;56.89;100327.88;7392343;19;20023;-58
2022/12/22 04:13:58;;;;;;;28.13;17.63;;;;;;;9.28;56.86;100308.00;7390715;19;19999;-57
2022/12/22 04:16:24;;;;;;;27.48;17.80;;;;;;;9.31;56.55;100312.78;7389863;19;20499;-58
2022/12/22 04:18:51;;;;;;;29.17;16.60;;;;;;;9.27;56.72;100309.94;7388996;19;20032;-58
2022/12/22 04:21:16;;;;;;;34.10;18.00;;;;;;;9.29;56.73;100312.34;7391688;19;20005;-58
2022/12/22 04:23:42;;;;;;;28.85;17.80;;;;;;;9.26;57.04;100315.75;7389722;19;20002;-58
2022/12/22 04:26:08;;;;;;;32.83;18.38;;;;;;;9.34;56.84;100314.81;7390007;19;19997;-58
2022/12/22 04:28:34;;;;;;;28.90;18.40;;;;;;;9.39;56.48;100305.63;7388802;19;20107;-59
2022/12/22 04:30:59;;;;;;;32.45;18.38;;;;;;;9.40;56.55;100310.72;7390629;19;20026;-59
2022/12/22 04:33:25;;;;;;;28.98;16.85;;;;;;;9.49;56.61;100316.03;7389894;19;19999;-57
2022/12/22 04:35:51;;;;;;;29.83;17.45;;;;;;;9.45;56.44;100309.69;7389647;19;20510;-57
2022/12/22 04:38:16;;;;;;;28.65;17.58;;;;;;;9.42;56.62;100310.38;7389552;19;20023;-58
2022/12/22 04:40:42;;;;;;;29.77;17.33;;;;;;;9.39;56.59;100300.16;7390218;19;20011;-58
2022/12/22 04:43:08;;;;;;;26.70;16.70;;;;;;;9.50;56.62;100301.28;7389514;19;20070;-57
2022/12/22 04:45:34;;;;;;;29.05;17.13;;;;;;;9.41;56.51;100303.34;7390092;19;20455;-58
2022/12/22 04:47:59;;;;;;;26.77;17.02;;;;;;;9.44;56.55;100297.19;7388941;19;20474;-58
2022/12/22 04:50:25;;;;;;;28.58;17.85;;;;;;;9.48;56.57;100302.75;7390190;19;20118;-58
2022/12/22 04:52:51;;;;;;;25.58;16.75;;;;;;;9.51;56.30;100296.59;7389427;19;20018;-57
2022/12/22 04:55:17;;;;;;;26.58;17.42;;;;;;;9.50;56.43;100298.56;7389084;19;20006;-58
2022/12/22 04:57:43;;;;;;;28.65;17.55;;;;;;;9.45;56.59;100288.69;7389066;19;20003;-58
2022/12/22 05:00:09;;;;;;;27.55;18.13;;;;;;;9.49;56.17;100286.06;7389116;19;20009;-57
2022/12/22 05:02:35;;;;;;;30.25;18.17;;;;;;;9.37;56.59;100281.44;7388872;19;20002;-59
2022/12/22 05:05:01;;;;;;;28.35;17.38;;;;;;;9.37;56.87;100286.88;7387371;19;20006;-59
2022/12/22 05:07:27;;;;;;;27.90;17.52;;;;;;;9.42;56.62;100277.69;7386975;19;20109;-59
2022/12/22 05:09:52;;;;;;;30.58;17.52;;;;;;;9.44;56.69;100278.13;7388983;19;20047;-59
2022/12/22 05:15:09;;;;;;;29.10;17.80;;;;;;;9.46;56.92;100279.34;7396118;19;20018;-59
2022/12/22 05:17:35;;;;;;;27.77;16.95;;;;;;;9.43;56.78;100280.06;7395265;19;20010;-59
2022/12/22 05:20:01;;;;;;;27.80;16.45;;;;;;;9.44;56.58;100272.69;7396140;19;20066;-59
2022/12/22 05:22:27;;;;;;;28.27;17.85;;;;;;;9.44;56.57;100269.97;7395857;19;20014;-59
2022/12/22 05:24:52;;;;;;;28.08;17.40;;;;;;;9.43;56.51;100271.91;7394621;19;20002;-59
2022/12/22 05:27:18;;;;;;;29.52;17.50;;;;;;;9.37;56.43;100267.81;7395597;19;20364;-60
2022/12/22 05:29:44;;;;;;;27.83;17.60;;;;;;;9.32;57.20;100259.91;7395812;19;20002;-60
2022/12/22 05:32:10;;;;;;;30.35;18.23;;;;;;;9.36;56.80;100260.00;7395932;19;20022;-60
2022/12/22 05:34:35;;;;;;;28.67;18.73;;;;;;;9.36;57.03;100257.28;7395854;19;20355;-59
2022/12/22 05:37:01;;;;;;;29.73;18.40;;;;;;;9.36;57.05;100255.34;7393353;19;20463;-59
2022/12/22 05:39:27;;;;;;;29.58;18.27;;;;;;;9.40;57.10;100258.16;7396010;19;20463;-59
2022/12/22 05:41:52;;;;;;;27.45;17.63;;;;;;;9.44;57.03;100265.28;7395789;19;19998;-59
2022/12/22 05:44:18;;;;;;;27.38;16.77;;;;;;;9.41;56.84;100255.09;7394788;19;20003;-58
2022/12/22 05:46:44;;;;;;;28.02;17.55;;;;;;;9.40;56.93;100250.78;7393708;19;20022;-59
2022/12/22 05:49:10;;;;;;;25.67;16.85;;;;;;;9.40;56.82;100244.53;7392747;19;20016;-58
2022/12/22 05:51:35;;;;;;;27.33;16.85;;;;;;;9.44;56.71;100246.22;7395165;19;19995;-58
2022/12/22 05:54:01;;;;;;;26.10;16.85;;;;;;;9.48;56.62;100249.03;7395040;19;20357;-57
2022/12/22 05:56:27;;;;;;;27.70;17.35;;;;;;;9.46;56.77;100246.66;7393476;19;20059;-58
2022/12/22 05:58:52;;;;;;;25.35;17.27;;;;;;;9.43;56.79;100235.69;7395477;19;20384;-59
2022/12/22 06:01:18;;;;;;;25.20;16.35;;;;;;;9.44;56.84;100240.00;7395316;19;20005;-58
2022/12/22 06:03:44;;;;;;;27.75;16.40;;;;;;;9.48;56.68;100238.16;7394533;19;20015;-58
2022/12/22 06:06:10;;;;;;;24.58;15.65;;;;;;;9.50;56.55;100238.63;7392950;19;20003;-58
2022/12/22 06:08:36;;;;;;;23.52;15.80;;;;;;;9.49;56.66;100245.19;7393245;19;20017;-59
2022/12/22 06:11:01;;;;;;;27.13;17.13;;;;;;;9.47;56.71;100236.59;7393293;19;20018;-59
2022/12/22 06:13:27;;;;;;;27.17;16.92;;;;;;;9.40;56.90;100236.38;7393912;19;20001;-58
2022/12/22 06:15:53;;;;;;;29.63;18.63;;;;;;;9.44;56.76;100245.44;7393358;19;20074;-57
2022/12/22 06:18:19;;;;;;;29.67;18.15;;;;;;;9.46;56.53;100246.66;7394694;19;20466;-57
2022/12/22 06:20:46;;;;;;;26.75;17.38;;;;;;;9.42;56.96;100245.00;7394287;19;19998;-59
2022/12/22 06:23:12;;;;;;;30.58;18.33;;;;;;;9.39;56.84;100230.13;7392094;19;20022;-57
2022/12/22 06:25:37;;;;;;;27.67;17.52;;;;;;;9.47;56.77;100239.31;7392456;19;20455;-57
2022/12/22 06:28:03;;;;;;;27.95;17.27;;;;;;;9.49;56.74;100236.22;7393539;19;20058;-59
2022/12/22 06:30:29;;;;;;;29.27;18.60;;;;;;;9.52;56.42;100244.50;7393891;19;20470;-58
2022/12/22 06:32:55;;;;;;;27.80;17.33;;;;;;;9.45;56.75;100233.41;7393207;19;20603;-57
2022/12/22 06:35:20;;;;;;;26.95;17.67;;;;;;;9.47;56.62;100233.84;7393265;19;20439;-58
2022/12/22 06:37:46;;;;;;;28.00;17.80;;;;;;;9.49;56.74;100239.75;7393986;19;20006;-58
2022/12/22 06:40:12;;;;;;;29.52;17.45;;;;;;;9.54;56.48;100244.94;7394184;19;20518;-57
2022/12/22 06:45:22;;;;;;;28.13;17.33;;;;;;;9.52;56.49;100241.78;7393033;19;20069;-58
2022/12/22 06:47:48;;;;;;;31.48;18.80;;;;;;;9.52;56.57;100249.16;7392981;19;20354;-58
2022/12/22 06:50:14;;;;;;;27.20;17.35;;;;;;;9.54;56.39;100250.38;7393193;19;19995;-57
2022/12/22 06:52:39;;;;;;;31.08;18.55;;;;;;;9.55;56.33;100246.53;7391647;19;20567;-57
2022/12/22 06:55:06;;;;;;;28.02;18.50;;;;;;;9.54;56.55;100247.66;7392411;19;19998;-57
2022/12/22 06:57:31;;;;;;;27.40;17.17;;;;;;;9.55;56.55;100254.72;7391836;19;19999;-57
2022/12/22 06:59:57;;;;;;;27.17;17.20;;;;;;;9.55;56.61;100251.16;7392673;19;20066;-58
2022/12/22 07:02:23;;;;;;;29.13;17.25;;;;;;;9.55;56.39;100254.72;7390652;19;19994;-58
2022/12/22 07:04:48;;;;;;;29.13;18.45;;;;;;;9.57;56.28;100257.88;7392648;19;20474;-58
2022/12/22 07:07:14;;;;;;;30.48;18.48;;;;;;;9.57;56.55;100263.31;7390084;19;20014;-58
2022/12/22 07:09:40;;;;;;;27.90;17.33;;;;;;;9.55;56.43;100268.34;7392951;19;20007;-58
2022/12/22 07:12:06;;;;;;;28.42;17.85;;;;;;;9.59;56.31;100265.72;7393367;19;20001;-57
2022/12/22 07:14:32;;;;;;;28.75;18.60;;;;;;;9.56;56.62;100267.19;7390975;19;20110;-58
2022/12/22 07:16:57;;;;;;;30.98;18.40;;;;;;;9.62;56.54;100254.16;7389798;19;20022;-58
2022/12/22 07:19:23;;;;;;;30.13;17.48;;;;;;;9.59;56.62;100261.06;7392361;19;20058;-58
2022/12/22 07:21:50;;;;;;;29.92;18.48;;;;;;;9.56;56.71;100255.50;7391906;19;20365;-58
2022/12/22 07:24:21;;;;;;;29.52;18.85;;;;;;;9.53;56.65;100256.19;7389123;19;20571;-59
2022/12/22 07:26:48;;;;;;;32.70;18.42;;;;;;;9.51;57.04;100259.25;7390311;19;20002;-59
2022/12/22 07:29:13;;;;;;;31.70;19.20;;;;;;;9.52;56.81;100263.56;7388567;19;20009;-58
2022/12/22 07:31:39;;;;;;;31.77;19.67;;;;;;;9.54;56.61;100257.78;7389922;19;20070;-60
2022/12/22 07:34:05;;;;;;;32.63;19.30;;;;;;;9.50;56.81;100263.13;7388118;19;20013;-58
2022/12/22 07:36:31;;;;;;;30.95;18.50;;;;;;;9.49;56.94;100256.09;7389353;19;20006;-58
2022/12/22 07:38:56;;;;;;;31.00;18.73;;;;;;;9.52;56.78;100255.41;7391981;19;20013;-58
2022/12/22 07:44:06;;;;;;;;;;;;;;;9.44;57.11;100264.50;7392083;19;20455;-58
2022/12/22 07:46:35;;;;;;;33.97;20.00;;;;;;;9.52;56.87;100273.69;7388920;19;19918;-58
2022/12/22 07:51:48;;;;;;;30.77;19.33;;;;;;;9.54;56.74;100274.13;7391331;19;20029;-59
2022/12/22 07:54:14;;;;;;;32.85;20.10;;;;;;;9.55;56.47;100276.50;7389869;19;20010;-59
2022/12/22 07:56:40;;;;;;;34.70;19.88;;;;;;;9.57;56.69;100285.13;7389692;19;20039;-59
2022/12/22 07:59:07;;;;;;;33.67;20.52;;;;;;;9.58;56.90;100285.91;7388438;19;20471;-58
2022/12/22 08:01:32;;;;;;;36.90;22.38;;;;;;;9.60;56.57;100287.19;7390975;19;20454;-59
2022/12/22 08:03:58;;;;;;;35.83;20.98;;;;;;;9.61;56.58;100294.19;7389675;19;19998;-59
2022/12/22 08:06:24;;;;;;;34.28;20.65;;;;;;;9.61;56.86;100290.69;7389442;19;20460;-59
2022/12/22 08:08:50;;;;;;;36.67;20.95;;;;;;;9.67;56.59;100305.66;7388333;19;20005;-58
2022/12/22 08:11:16;;;;;;;38.85;21.65;;;;;;;9.61;56.57;100302.38;7391251;19;19999;-58
2022/12/22 08:13:42;;;;;;;36.33;20.95;;;;;;;9.57;57.09;100306.91;7388043;19;20458;-58
2022/12/22 08:16:11;;;;;;;35.28;21.85;;;;;;;9.61;56.89;100309.75;7389246;19;20054;-58
2022/12/22 08:18:37;;;;;;;40.17;22.02;;;;;;;9.60;56.52;100303.53;7389882;19;20467;-59
2022/12/22 08:21:04;;;;;;;39.65;22.98;;;;;;;9.56;56.95;100302.59;7389798;19;20002;-58
2022/12/22 08:23:31;;;;;;;39.10;21.15;;;;;;;9.58;56.90;100303.06;7389154;19;20477;-59
2022/12/22 08:26:09;;;;;;;41.90;23.45;;;;;;;9.61;56.79;100299.66;7388540;19;20473;-58
2022/12/22 08:28:40;;;;;;;37.53;22.17;;;;;;;9.62;57.11;100303.97;7389167;19;19999;-58
2022/12/22 08:31:06;;;;;;;39.13;22.52;;;;;;;9.61;56.88;100302.38;7390554;19;20003;-59
2022/12/22 08:33:32;;;;;;;40.75;22.88;;;;;;;9.63;56.94;100310.22;7389319;19;20309;-59
2022/12/22 08:35:58;;;;;;;40.58;23.60;;;;;;;9.61;57.16;100302.38;7386770;19;19999;-58
2022/12/22 08:38:25;;;;;;;38.13;22.35;;;;;;;9.66;56.80;100308.72;7390332;19;19994;-59
2022/12/22 08:40:50;;;;;;;41.58;23.77;;;;;;;9.70;56.99;100309.59;7387975;19;20058;-58
2022/12/22 08:43:17;;;;;;;44.70;23.73;;;;;;;9.70;56.75;100301.44;7389199;19;19995;-58
2022/12/22 08:45:43;;;;;;;45.78;23.25;;;;;;;9.71;56.86;100303.03;7390957;19;20054;-58
2022/12/22 08:48:09;;;;;;;42.08;23.65;;;;;;;9.68;56.75;100301.00;7395068;19;20011;-57
2022/12/22 08:50:35;;;;;;;40.53;23.10;;;;;;;9.72;56.69;100293.72;7397157;19;20010;-58
2022/12/22 08:53:03;;;;;;;41.53;23.80;;;;;;;9.78;56.89;100305.94;7395543;19;20074;-58
2022/12/22 08:55:28;;;;;;;39.20;21.73;;;;;;;9.80;56.52;100303.66;7396276;19;20059;-58
2022/12/22 08:57:54;;;;;;;42.08;22.02;;;;;;;9.81;56.43;100297.84;7396413;19;20003;-58
2022/12/22 09:00:26;;;;;;;41.63;23.05;;;;;;;9.81;56.63;100305.25;7396927;19;20003;-59
2022/12/22 09:02:52;;;;;;;43.35;22.85;;;;;;;9.82;56.59;100304.13;7395109;19;20375;-58
2022/12/22 09:05:18;;;;;;;40.33;22.77;;;;;;;9.85;56.45;100289.81;7396292;19;20009;-58
2022/12/22 09:07:46;;;;;;;38.78;22.48;;;;;;;9.88;56.51;100288.31;7392990;19;20038;-59
2022/12/22 09:10:12;;;;;;;43.90;23.55;;;;;;;9.91;56.52;100282.94;7395129;19;20011;-57
2022/12/22 09:12:38;;;;;;;43.53;23.33;;;;;;;9.92;56.48;100291.94;7396074;19;20002;-58
2022/12/22 09:15:06;;;;;;;42.85;22.83;;;;;;;9.91;56.67;100287.59;7396100;19;19991;-57
2022/12/22 09:17:31;;;;;;;43.20;24.15;;;;;;;9.86;56.89;100291.38;7396054;19;20332;-58
2022/12/22 09:19:57;;;;;;;44.65;24.27;;;;;;;9.90;56.64;100294.19;7395787;19;20032;-59
2022/12/22 09:22:23;;;;;;;44.35;23.15;;;;;;;9.90;56.93;100303.19;7395620;19;20002;-58
2022/12/22 09:24:57;;;;;;;43.38;23.08;;;;;;;9.92;56.61;100308.28;7392694;19;20014;-59
2022/12/22 09:27:23;;;;;;;42.58;23.42;;;;;;;9.97;56.52;100308.03;7395758;19;20292;-58
2022/12/22 09:29:49;;;;;;;43.22;24.00;;;;;;;10.03;56.54;100311.28;7395096;19;20470;-57
2022/12/22 09:32:14;;;;;;;42.33;23.35;;;;;;;10.04;56.32;100316.38;7395956;19;20325;-58
2022/12/22 09:34:40;;;;;;;44.88;23.85;;;;;;;10.05;56.19;100319.91;7394215;19;20002;-58
2022/12/22 09:37:06;;;;;;;47.60;24.48;;;;;;;10.01;56.63;100317.88;7396458;19;20003;-58
2022/12/22 09:39:32;;;;;;;47.47;22.80;;;;;;;9.94;56.73;100320.41;7395112;19;20066;-58
2022/12/22 09:41:58;;;;;;;41.35;21.90;;;;;;;10.04;56.37;100326.50;7393245;19;20308;-58
2022/12/22 09:44:31;;;;;;;43.63;23.42;;;;;;;10.10;56.47;100327.81;7394800;19;19998;-58
2022/12/22 09:47:00;;;;;;;41.00;22.52;;;;;;;10.03;56.64;100327.63;7392821;19;20016;-57
2022/12/22 09:49:27;;;;;;;38.83;22.02;;;;;;;10.06;56.50;100324.22;7391553;19;20008;-58
2022/12/22 09:52:01;;;;;;;39.80;21.52;;;;;;;10.07;56.58;100328.50;7393394;19;20003;-58
2022/12/22 09:54:28;;;;;;;41.28;21.38;;;;;;;10.03;56.65;100322.97;7394698;19;20073;-59
2022/12/22 09:56:55;;;;;;;38.03;20.13;;;;;;;10.00;56.68;100335.38;7390362;19;20014;-58
2022/12/22 09:59:25;;;;;;;40.80;21.08;;;;;;;9.96;56.87;100334.47;7392199;19;20533;-58
2022/12/22 10:02:09;;;;;;;40.35;20.35;;;;;;;9.94;56.99;100333.25;7394774;19;20015;-58
2022/12/22 10:04:40;;;;;;;43.53;22.38;;;;;;;9.96;57.06;100334.47;7394084;19;20356;-58
2022/12/22 10:07:22;;;;;;;44.20;22.77;;;;;;;10.00;56.76;100340.03;7392304;19;20002;-58
2022/12/22 10:09:54;;;;;;;43.35;23.10;;;;;;;10.01;56.70;100342.41;7395165;19;20011;-58
2022/12/22 10:12:23;;;;;;;36.25;19.85;;;;;;;10.00;57.01;100340.84;7391632;19;20006;-59
2022/12/22 10:14:52;;;;;;;37.08;19.77;;;;;;;10.04;56.69;100343.66;7394281;19;19995;-57
2022/12/22 10:17:20;;;;;;;35.42;19.15;;;;;;;10.00;56.34;100346.28;7394418;19;20099;-57
2022/12/22 10:19:48;;;;;;;38.67;20.85;;;;;;;9.95;56.74;100335.63;7393531;19;20013;-58
2022/12/22 10:22:31;;;;;;;40.17;22.50;;;;;;;9.91;56.50;100348.38;7394239;19;20055;-56
2022/12/22 10:25:00;;;;;;;40.00;22.10;;;;;;;9.94;56.07;100352.34;7393755;19;19998;-58
2022/12/22 10:27:30;;;;;;;39.17;22.50;;;;;;;10.02;56.05;100354.13;7393660;19;20435;-56
2022/12/22 10:30:16;;;;;;;40.10;22.33;;;;;;;10.03;55.91;100347.50;7393517;19;20017;-58
2022/12/22 10:32:42;;;;;;;40.63;21.63;;;;;;;10.05;55.88;100341.72;7391464;19;19998;-58
2022/12/22 10:35:08;;;;;;;36.55;20.33;;;;;;;10.10;55.78;100341.47;7392918;19;20023;-58
2022/12/22 10:37:39;;;;;;;40.38;20.70;;;;;;;10.15;55.35;100350.19;7392404;19;20478;-58
2022/12/22 10:40:18;;;;;;;39.65;20.45;;;;;;;10.12;55.55;100342.72;7391312;19;20002;-57
2022/12/22 10:42:46;;;;;;;36.50;19.83;;;;;;;9.97;55.73;100346.19;7392938;19;20028;-58
2022/12/22 10:45:21;;;;;;;30.98;17.73;;;;;;;10.00;55.64;100346.28;7392667;19;20676;-58
2022/12/22 10:47:53;;;;;;;32.00;17.75;;;;;;;10.00;55.63;100345.47;7392957;19;20010;-57
2022/12/22 10:50:20;;;;;;;32.22;17.25;;;;;;;10.04;55.32;100345.59;7392462;19;20007;-57
2022/12/22 10:52:52;;;;;;;33.40;18.73;;;;;;;9.99;55.36;100352.88;7392689;19;20095;-57
2022/12/22 10:55:28;;;;;;;35.40;18.77;;;;;;;9.97;55.56;100357.88;7392053;19;20030;-58
2022/12/22 10:58:08;;;;;;;34.08;17.67;;;;;;;10.04;55.24;100359.22;7392901;19;20006;-57
2022/12/22 11:00:36;;;;;;;35.65;17.80;;;;;;;10.00;54.95;100356.38;7392699;19;20003;-58
2022/12/22 11:03:03;;;;;;;33.13;17.63;;;;;;;10.03;55.21;100354.91;7391303;19;20098;-58
2022/12/22 11:05:30;;;;;;;30.05;16.38;;;;;;;10.05;55.14;100347.16;7392747;19;20020;-56
2022/12/22 11:07:59;;;;;;;29.98;16.35;;;;;;;9.99;54.98;100354.81;7392659;19;20011;-60
2022/12/22 11:10:35;;;;;;;29.67;15.77;;;;;;;9.85;54.93;100357.13;7394918;19;20010;-58
2022/12/22 11:13:21;;;;;;;29.40;16.33;;;;;;;9.90;54.81;100368.59;7393878;19;20002;-58
2022/12/22 11:16:13;;;;;;;32.13;16.52;;;;;;;9.83;54.96;100368.38;7394228;19;19999;-58
2022/12/22 11:18:57;;;;;;;30.70;15.88;;;;;;;9.79;54.86;100375.69;7391789;19;19999;-58
2022/12/22 11:21:45;;;;;;;30.92;15.98;;;;;;;9.78;55.19;100374.91;7391947;19;20470;-58
2022/12/22 11:24:32;;;;;;;31.13;15.40;;;;;;;9.77;54.90;100383.41;7389372;19;20006;-59
2022/12/22 11:27:07;;;;;;;30.92;16.02;;;;;;;9.79;54.83;100389.31;7390444;19;19995;-59
2022/12/22 11:29:54;;;;;;;28.33;15.45;;;;;;;9.69;54.90;100390.59;7389829;19;20118;-58
2022/12/22 11:32:29;;;;;;;26.70;14.80;;;;;;;9.66;55.02;100390.47;7391736;19;20009;-58
2022/12/22 11:35:10;;;;;;;31.65;16.15;;;;;;;9.62;55.00;100395.84;7388248;19;20478;-57
2022/12/22 11:37:50;;;;;;;27.63;14.43;;;;;;;9.58;54.60;100406.59;7391955;19;20126;-57
2022/12/22 11:40:41;;;;;;;31.20;14.35;;;;;;;9.59;54.79;100410.13;7389046;19;20019;-57
2022/12/22 11:43:40;;;;;;;33.45;15.35;;;;;;;9.61;54.57;100408.66;7388822;19;19991;-57
2022/12/22 11:46:20;;;;;;;28.40;15.18;;;;;;;9.59;54.58;100408.19;7388617;19;19994;-58
2022/12/22 11:49:15;;;;;;;27.20;14.68;;;;;;;9.56;54.39;100408.84;7388390;19;19995;-59
2022/12/22 11:51:51;;;;;;;26.42;13.57;;;;;;;9.48;54.84;100409.78;7389572;19;19998;-58
2022/12/22 11:54:41;;;;;;;30.10;13.68;;;;;;;9.50;54.58;100409.44;7390127;19;20478;-58
2022/12/22 11:57:16;;;;;;;26.13;13.55;;;;;;;9.57;54.47;100415.13;7390118;19;20463;-58
2022/12/22 11:59:50;;;;;;;27.95;13.82;;;;;;;9.61;54.50;100413.31;7391093;19;20002;-59
2022/12/22 12:02:16;;;;;;;27.15;13.27;;;;;;;9.66;54.02;100417.72;7378817;19;20479;-58
2022/12/22 12:05:06;;;;;;;30.05;14.40;;;;;;;9.66;54.07;100415.78;7389958;19;20046;-58
2022/12/22 12:07:49;;;;;;;25.67;12.93;;;;;;;9.64;53.80;100415.34;7390429;19;20023;-57
2022/12/22 12:10:21;;;;;;;29.48;13.73;;;;;;;9.66;54.02;100413.06;7389037;19;19995;-58
2022/12/22 12:12:57;;;;;;;25.77;13.18;;;;;;;9.70;53.82;100418.63;7388490;19;20333;-57
2022/12/22 12:15:33;;;;;;;25.70;11.93;;;;;;;9.69;53.80;100423.28;7391299;19;20007;-58
2022/12/22 12:18:22;;;;;;;29.08;12.45;;;;;;;9.61;53.51;100425.00;7386600;19;20428;-57
2022/12/22 12:21:01;;;;;;;23.35;12.10;;;;;;;9.70;53.30;100424.06;7390425;19;19998;-57
2022/12/22 12:23:38;;;;;;;26.90;12.57;;;;;;;9.70;53.45;100426.78;7390960;19;20505;-57
2022/12/22 12:26:23;;;;;;;24.25;11.93;;;;;;;9.80;53.26;100434.50;7398223;19;20482;-58
2022/12/22 12:29:19;;;;;;;25.27;11.30;;;;;;;9.82;52.78;100432.22;7394745;19;19994;-58
2022/12/22 12:31:59;;;;;;;23.48;10.40;;;;;;;9.86;52.58;100432.34;7396440;19;20798;-58
2022/12/22 12:34:28;;;;;;;22.08;10.65;;;;;;;9.87;52.51;100432.00;7397824;19;20002;-57
2022/12/22 12:37:02;;;;;;;25.83;10.55;;;;;;;9.92;52.12;100437.19;7397929;19;19999;-57
2022/12/22 12:39:40;;;;;;;20.85;9.45;;;;;;;9.99;52.11;100434.66;7398467;19;20006;-58
2022/12/22 12:42:20;;;;;;;24.25;9.68;;;;;;;9.97;51.90;100438.91;7395430;19;20313;-57
2022/12/22 12:44:46;;;;;;;19.10;8.13;;;;;;;9.76;52.34;100439.84;7398385;19;20014;-58
2022/12/22 12:47:26;;;;;;;18.27;8.35;;;;;;;9.79;51.81;100433.69;7397892;19;20010;-58
2022/12/22 12:50:22;;;;;;;21.55;8.00;;;;;;;9.81;51.21;100436.88;7397231;19;20309;-58
2022/12/22 12:52:49;;;;;;;20.80;7.95;;;;;;;9.88;51.29;100438.22;7394564;19;20106;-58
2022/12/22 12:55:45;;;;;;;18.77;7.78;;;;;;;9.88;51.11;100430.84;7394555;19;20398;-57
2022/12/22 12:58:31;;;;;;;23.25;8.65;;;;;;;9.93;51.35;100432.53;7397340;19;20015;-57
2022/12/22 13:00:57;;;;;;;17.10;8.07;;;;;;;9.91;51.41;100435.59;7396913;19;20002;-58
2022/12/22 13:03:22;;;;;;;17.60;7.70;;;;;;;9.97;51.00;100433.44;7391226;19;20010;-58
2022/12/22 13:05:51;;;;;;;20.52;8.23;;;;;;;9.98;50.81;100444.00;7395189;19;20474;-58
2022/12/22 13:08:24;;;;;;;22.33;8.05;;;;;;;10.01;50.72;100439.78;7395035;19;20002;-58
2022/12/22 13:10:53;;;;;;;18.05;7.43;;;;;;;9.96;51.01;100443.53;7394684;19;20509;-58
2022/12/22 13:13:21;;;;;;;19.10;8.40;;;;;;;9.97;50.78;100441.63;7391368;19;20055;-58
2022/12/22 13:16:08;;;;;;;18.50;7.63;;;;;;;9.93;50.93;100446.94;7397049;19;20004;-58
2022/12/22 13:18:34;;;;;;;23.88;8.07;;;;;;;9.94;50.82;100445.03;7394488;19;20001;-58
2022/12/22 13:21:11;;;;;;;29.35;8.45;;;;;;;9.92;50.81;100442.66;7395087;19;20066;-58
2022/12/22 13:23:41;;;;;;;17.20;7.63;;;;;;;9.93;50.71;100444.22;7396014;19;20356;-57
2022/12/22 13:26:20;;;;;;;19.42;7.53;;;;;;;10.03;50.54;100450.34;7397321;19;20217;-58
2022/12/22 13:29:23;;;;;;;17.80;7.00;;;;;;;10.07;50.03;100457.50;7394421;19;20454;-57
2022/12/22 13:32:14;;;;;;;20.60;8.27;;;;;;;10.09;49.64;100460.66;7393623;19;19991;-58
2022/12/22 13:34:47;;;;;;;16.73;6.95;;;;;;;10.00;49.94;100465.44;7394240;19;20338;-56
2022/12/22 13:37:22;;;;;;;18.13;6.35;;;;;;;9.89;48.99;100462.41;7394837;19;19995;-57
2022/12/22 13:40:09;;;;;;;18.33;7.00;;;;;;;9.85;49.30;100458.81;7395626;19;20015;-57
2022/12/22 13:43:04;;;;;;;16.98;6.90;;;;;;;9.90;49.02;100460.47;7393372;19;20009;-57
2022/12/22 13:45:32;;;;;;;18.27;7.28;;;;;;;9.84;50.06;100462.66;7394522;19;20066;-58
2022/12/22 13:48:01;;;;;;;21.27;7.07;;;;;;;9.79;49.93;100463.69;7393000;19;20006;-58
2022/12/22 13:50:35;;;;;;;20.27;7.03;;;;;;;9.76;49.57;100469.81;7393747;19;20115;-58
2022/12/22 13:53:04;;;;;;;16.77;6.55;;;;;;;9.69;49.87;100474.28;7392911;19;19999;-57
2022/12/22 13:55:31;;;;;;;15.90;6.63;;;;;;;9.76;49.62;100482.66;7395069;19;19999;-58
2022/12/22 13:58:08;;;;;;;18.08;6.57;;;;;;;9.73;49.58;100486.84;7395164;19;20062;-57
2022/12/22 14:00:34;;;;;;;19.75;6.78;;;;;;;9.71;49.53;100474.72;7395912;19;19998;-58
2022/12/22 14:02:59;;;;;;;19.85;6.65;;;;;;;9.68;49.62;100489.03;7389656;19;20092;-58
2022/12/22 14:05:30;;;;;;;18.40;6.93;;;;;;;9.71;49.45;100482.91;7395088;19;19998;-57
2022/12/22 14:08:02;;;;;;;19.90;6.28;;;;;;;9.63;49.51;100479.97;7394337;19;20058;-58
2022/12/22 14:10:32;;;;;;;17.70;6.45;;;;;;;9.59;49.49;100486.44;7395400;19;20109;-58
2022/12/22 14:13:03;;;;;;;18.80;6.72;;;;;;;9.59;49.59;100484.50;7391995;19;20003;-57
2022/12/22 14:15:29;;;;;;;16.60;6.20;;;;;;;9.58;49.62;100476.63;7395354;19;20006;-57
2022/12/22 14:17:54;;;;;;;16.48;5.97;;;;;;;9.59;49.28;100479.03;7392894;19;20070;-57
2022/12/22 14:20:27;;;;;;;14.75;5.80;;;;;;;9.55;49.71;100480.84;7394906;19;20020;-58
2022/12/22 14:22:57;;;;;;;16.13;6.70;;;;;;;9.51;49.67;100477.19;7392275;19;19999;-58
2022/12/22 14:25:35;;;;;;;16.17;5.95;;;;;;;9.40;49.63;100481.50;7392861;19;20005;-57
2022/12/22 14:28:03;;;;;;;16.40;5.53;;;;;;;9.40;49.58;100476.06;7393625;19;20007;-58
2022/12/22 14:30:44;;;;;;;16.05;6.18;;;;;;;9.35;49.25;100482.56;7394242;19;20013;-58
2022/12/22 14:33:17;;;;;;;15.10;5.72;;;;;;;9.37;49.37;100483.00;7391408;19;19999;-58
2022/12/22 14:35:43;;;;;;;15.80;5.45;;;;;;;9.37;49.33;100474.03;7394504;19;19998;-58
2022/12/22 14:38:22;;;;;;;18.30;6.43;;;;;;;9.34;49.42;100478.22;7393465;19;20077;-57
2022/12/22 14:40:48;;;;;;;17.08;6.30;;;;;;;9.12;49.97;100482.19;7391717;19;20431;-57
2022/12/22 14:43:17;;;;;;;16.38;6.32;;;;;;;9.13;50.04;100486.50;7388096;19;19999;-57
2022/12/22 14:45:48;;;;;;;15.60;6.03;;;;;;;9.15;49.79;100486.97;7394036;19;20007;-57
2022/12/22 14:48:28;;;;;;;18.95;6.07;;;;;;;9.15;49.63;100494.31;7393663;19;20016;-57
2022/12/22 14:50:55;;;;;;;17.33;6.22;;;;;;;9.08;50.15;100492.16;7393842;19;20010;-57
2022/12/22 14:53:52;;;;;;;15.57;5.82;;;;;;;9.08;49.54;100495.69;7391927;19;20062;-57
2022/12/22 14:56:18;;;;;;;15.40;5.82;;;;;;;9.07;49.96;100498.75;7393983;19;20011;-56
2022/12/22 14:58:46;;;;;;;17.63;6.15;;;;;;;9.09;49.98;100508.16;7393954;19;20015;-57
2022/12/22 15:01:21;;;;;;;23.42;6.25;;;;;;;9.05;50.04;100504.53;7392907;19;20006;-57
2022/12/22 15:04:00;;;;;;;14.75;5.60;;;;;;;9.05;50.12;100506.47;7390292;19;20010;-56
2022/12/22 15:06:26;;;;;;;15.48;6.07;;;;;;;9.08;50.11;100505.78;7392952;19;20002;-57
2022/12/22 15:09:05;;;;;;;18.02;6.25;;;;;;;9.10;49.93;100506.25;7392214;19;20005;-58
2022/12/22 15:11:32;;;;;;;16.95;6.13;;;;;;;9.11;49.91;100509.75;7395834;19;20490;-57
2022/12/22 15:14:00;;;;;;;16.48;5.72;;;;;;;9.06;49.87;100516.22;7392062;19;20354;-57
2022/12/22 15:16:26;;;;;;;19.15;6.60;;;;;;;9.07;50.04;100512.38;7396050;19;20023;-57
2022/12/22 15:18:52;;;;;;;18.48;6.20;;;;;;;8.99;50.24;100515.97;7390777;19;20010;-57